Airfield :
LOGIN :

Register | Disclaimer

   EN    FR    IT 

 










Legend :    VFR   Marginal VFR   IFR   Intensive IFR   Very Intensive IFR
Visi :
Ceiling :
>= 8 km
>= 3000ft
5 to 8 km
1000 to 3000 ft
1500m to 5 km
500 to 1000 ft
800 to 1500m
200 to 500 ft
< 800m
< 200 ft
Symbols :   Thunderstorms  Fog  Heavy snow  Heavy precipitations  Wind > 20 kt
SIGMETs :     Misc.  Thunderstorms  Icing  Turbulence  Mountain Waves  Volcanic Ashes






- Airport Elevation : 427 ft
- IATA code : KBP


UKBB - Boryspil'

CURRENT METAR :
  • 300730Z 33006MPS CAVOK 09/01 Q1006 R36R/CLRD// TEMPO 33009G14MPS

EXPIRED METARs :
  • 300700Z 33006MPS CAVOK 08/01 Q1006 R36R/CLRD// TEMPO 33009G14MPS
  • 300630Z 33007MPS CAVOK 08/01 Q1005 R36R/CLRD// TEMPO 33009G14MPS
  • 300600Z 34007MPS CAVOK 07/01 Q1005 R36R/CLRD// TEMPO 33009G14MPS
  • 300530Z 33006MPS CAVOK 07/01 Q1005 R36R/CLRD// NOSIG
  • 300500Z 34005MPS CAVOK 07/01 Q1004 R36R/CLRD// NOSIG

TAF COR TAF UKBB
Valid from the 30 at 06:00 until the 31 at 06:00 UTC


300526Z 3006/3106 34006G12MPS 9999 BKN010 TX07/3012Z TNM06/3104Z
TEMPO 3006/3018 33009G14MPS 2100 -SHRASN BKN007 BKN012CB
TEMPO 3018/3106 2100 -SHSN BKN006 BKN012CB



MET'MAP, your aeronautical weather chart ! - Copyright ORBIFLY December 2007 - Disclaimer

ORBIFLY MET'MAP TEAM :

Programming & Development : Alexandra Zaïnal
Concept & original design : Baudouin d'Aumeries
Assistance for programming : Marc-Olivier Méhu
Technical & hardware support : Manuel Goepfert

Contact : metmap@orbifly.com




SOURCES & CREDITS :

   NOAA